Time;durP1;ratioP1;P1;durP2;ratioP2;P2;SDS_P1;SDS_P2;PMS_P1;PMS_P2;Temp;Humidity;BMP_temperature;BMP_pressure;BME280_temperature;BME280_humidity;BME280_pressure;Samples;Min_cycle;Max_cycle;Signal;HPM_P1;HPM_P2
2023/07/31 00:00:58;;;;;;;0.90;0.80;;;17.10;99.90;;;;;;5062722;28;20170;-43
2023/07/31 00:03:33;;;;;;;0.80;0.60;;;17.10;99.90;;;;;;5053776;28;20025;-42
2023/07/31 00:05:58;;;;;;;0.73;0.68;;;17.10;99.90;;;;;;5050539;28;20522;-41
2023/07/31 00:08:24;;;;;;;0.90;0.82;;;17.10;99.90;;;;;;5054643;28;20041;-44
2023/07/31 00:10:52;;;;;;;0.63;0.60;;;17.10;99.90;;;;;;5064102;28;20376;-44
2023/07/31 00:13:18;;;;;;;0.90;0.75;;;17.10;99.90;;;;;;5056448;28;20039;-41
2023/07/31 00:15:44;;;;;;;0.98;0.60;;;17.20;99.90;;;;;;5063894;28;20024;-41
2023/07/31 00:18:09;;;;;;;1.02;0.80;;;17.20;99.90;;;;;;5057274;28;20025;-41
2023/07/31 00:20:35;;;;;;;0.70;0.60;;;17.20;99.90;;;;;;5047260;28;20056;-41
2023/07/31 00:23:00;;;;;;;0.73;0.73;;;17.30;99.90;;;;;;5058543;28;20029;-41
2023/07/31 00:25:26;;;;;;;0.55;0.55;;;17.30;99.90;;;;;;5046207;28;20550;-41
2023/07/31 00:27:51;;;;;;;0.70;0.60;;;17.30;99.90;;;;;;5058409;28;20067;-41
2023/07/31 00:30:17;;;;;;;0.70;0.70;;;17.30;99.90;;;;;;5046580;28;20316;-42
2023/07/31 00:32:43;;;;;;;0.65;0.65;;;17.30;99.90;;;;;;5049551;28;20640;-41
2023/07/31 00:35:08;;;;;;;0.68;0.60;;;17.30;99.90;;;;;;5065212;28;20040;-42
2023/07/31 00:37:34;;;;;;;0.70;0.70;;;17.30;99.90;;;;;;5061958;28;20024;-42
2023/07/31 00:40:00;;;;;;;0.73;0.73;;;17.30;99.90;;;;;;5048624;28;20029;-43
2023/07/31 00:42:25;;;;;;;0.63;0.63;;;17.30;99.90;;;;;;5052734;28;20078;-42
2023/07/31 00:44:51;;;;;;;1.17;0.90;;;17.30;99.90;;;;;;5052188;28;20385;-42
2023/07/31 00:47:17;;;;;;;1.08;0.82;;;17.30;99.90;;;;;;5049450;28;20060;-41
2023/07/31 00:49:43;;;;;;;1.75;1.20;;;17.40;99.90;;;;;;5054545;28;20037;-42
2023/07/31 00:52:10;;;;;;;1.60;1.30;;;17.40;99.90;;;;;;5047289;28;20032;-42
2023/07/31 00:54:35;;;;;;;2.10;1.85;;;17.40;99.90;;;;;;5056130;28;20433;-42
2023/07/31 00:57:02;;;;;;;2.67;2.00;;;17.40;99.90;;;;;;5046946;28;20124;-42
2023/07/31 00:59:27;;;;;;;3.70;2.35;;;17.40;99.90;;;;;;5057644;28;20420;-42
2023/07/31 01:01:56;;;;;;;6.47;3.45;;;17.50;99.90;;;;;;5045767;28;20017;-43
2023/07/31 01:04:22;;;;;;;4.88;3.17;;;17.50;99.90;;;;;;5053447;28;20034;-42
2023/07/31 01:06:56;;;;;;;7.95;4.50;;;17.50;99.90;;;;;;5065352;28;20020;-42
2023/07/31 01:09:46;;;;;;;9.35;4.57;;;17.60;99.90;;;;;;5057288;28;20142;-42
2023/07/31 01:12:20;;;;;;;8.32;4.75;;;17.60;99.90;;;;;;5065491;28;20031;-42
2023/07/31 01:15:12;;;;;;;9.68;5.15;;;17.70;99.90;;;;;;5052969;28;20020;-42
2023/07/31 01:17:38;;;;;;;11.55;5.40;;;17.70;99.90;;;;;;5059194;28;20044;-42
2023/07/31 01:20:12;;;;;;;13.07;6.05;;;17.80;99.90;;;;;;5054178;28;20035;-42
2023/07/31 01:22:57;;;;;;;10.63;5.50;;;17.80;99.90;;;;;;5064073;28;20029;-42
2023/07/31 01:25:46;;;;;;;11.70;5.88;;;17.80;99.90;;;;;;5057003;28;20040;-42
2023/07/31 01:28:20;;;;;;;14.32;5.57;;;17.80;99.90;;;;;;5045799;28;20025;-42
2023/07/31 01:30:48;;;;;;;10.98;5.18;;;17.80;99.90;;;;;;5056358;28;20040;-42
2023/07/31 01:33:18;;;;;;;10.43;5.40;;;17.80;99.90;;;;;;5047083;28;20661;-42
2023/07/31 01:35:48;;;;;;;15.55;5.78;;;17.80;99.90;;;;;;5053774;28;20030;-42
2023/07/31 01:38:14;;;;;;;12.40;6.75;;;17.80;99.90;;;;;;5064147;28;20035;-42
2023/07/31 01:40:42;;;;;;;14.27;6.15;;;17.80;99.90;;;;;;5053723;28;20020;-43
2023/07/31 01:43:10;;;;;;;11.43;5.78;;;17.80;99.90;;;;;;5065370;28;20013;-42
2023/07/31 01:45:36;;;;;;;14.40;6.07;;;17.80;99.90;;;;;;5052513;28;20033;-42
2023/07/31 01:48:01;;;;;;;12.95;5.72;;;17.90;99.90;;;;;;5061234;28;20028;-41
2023/07/31 01:50:27;;;;;;;10.50;5.43;;;17.90;99.90;;;;;;5059922;28;20071;-41
2023/07/31 01:52:52;;;;;;;9.07;4.88;;;17.90;99.90;;;;;;5065105;28;20021;-41
2023/07/31 01:55:18;;;;;;;10.15;5.10;;;17.80;99.90;;;;;;5054644;28;20033;-41
2023/07/31 01:57:43;;;;;;;12.50;6.10;;;17.90;99.90;;;;;;5062765;28;20028;-42
2023/07/31 02:00:09;;;;;;;12.15;5.95;;;17.90;99.90;;;;;;5057254;28;20468;-43
2023/07/31 02:02:38;;;;;;;12.43;6.40;;;17.80;99.90;;;;;;5060038;28;20024;-42
2023/07/31 02:05:05;;;;;;;14.05;6.65;;;17.80;99.90;;;;;;5058316;28;20071;-43
2023/07/31 02:07:30;;;;;;;12.63;5.30;;;17.80;99.90;;;;;;5057949;28;20052;-43
2023/07/31 02:09:56;;;;;;;9.85;5.50;;;17.80;99.90;;;;;;5056400;28;20032;-43
2023/07/31 02:12:22;;;;;;;11.90;5.22;;;17.80;99.90;;;;;;5053650;28;20101;-43
2023/07/31 02:14:47;;;;;;;8.90;5.40;;;17.70;99.90;;;;;;5047505;28;20040;-43
2023/07/31 02:17:13;;;;;;;11.80;5.07;;;17.80;99.90;;;;;;5055063;28;20067;-43
2023/07/31 02:19:38;;;;;;;10.85;5.40;;;17.80;99.90;;;;;;5045073;28;20048;-43
2023/07/31 02:22:04;;;;;;;12.45;5.22;;;17.80;99.90;;;;;;5055667;28;20021;-43
2023/07/31 02:24:31;;;;;;;11.07;5.15;;;17.70;99.90;;;;;;5043907;28;20040;-43
2023/07/31 02:26:57;;;;;;;9.25;5.20;;;17.70;99.90;;;;;;5056926;28;20021;-42
2023/07/31 02:29:23;;;;;;;10.18;4.53;;;17.70;99.90;;;;;;5044501;28;20578;-43
2023/07/31 02:31:48;;;;;;;11.07;5.50;;;17.60;99.90;;;;;;5056427;28;20044;-43
2023/07/31 02:34:14;;;;;;;11.60;5.65;;;17.60;99.90;;;;;;5045046;28;20532;-43
2023/07/31 02:36:39;;;;;;;10.13;5.50;;;17.60;99.90;;;;;;5054622;28;20029;-42
2023/07/31 02:39:05;;;;;;;8.82;5.28;;;17.50;99.90;;;;;;5046319;28;20021;-43
2023/07/31 02:41:31;;;;;;;8.98;5.13;;;17.50;99.90;;;;;;5054174;28;20048;-43
2023/07/31 02:43:56;;;;;;;9.65;4.75;;;17.50;99.90;;;;;;5049831;28;20116;-42
2023/07/31 02:46:24;;;;;;;9.73;4.35;;;17.40;99.90;;;;;;5048393;28;20082;-42
2023/07/31 02:48:52;;;;;;;9.55;4.55;;;17.40;99.90;;;;;;5051193;28;20036;-42
2023/07/31 02:51:18;;;;;;;11.43;4.85;;;17.40;99.90;;;;;;5046663;28;20044;-42
2023/07/31 02:53:43;;;;;;;9.88;4.65;;;17.40;99.90;;;;;;5053467;28;20029;-43
2023/07/31 02:56:09;;;;;;;12.27;5.47;;;17.50;99.90;;;;;;5045296;28;20021;-43
2023/07/31 02:58:35;;;;;;;12.02;4.82;;;17.40;99.90;;;;;;5055254;28;20027;-42
2023/07/31 03:01:00;;;;;;;10.48;4.45;;;17.50;99.90;;;;;;5044449;28;20116;-42
2023/07/31 03:03:26;;;;;;;7.30;4.22;;;17.50;99.90;;;;;;5056216;28;20017;-43
2023/07/31 03:05:57;;;;;;;9.00;5.00;;;17.50;99.90;;;;;;5044485;28;20025;-42
2023/07/31 03:08:26;;;;;;;12.60;4.85;;;17.50;99.90;;;;;;5056261;28;20065;-42
2023/07/31 03:10:51;;;;;;;9.57;5.25;;;17.50;99.90;;;;;;5063353;28;20044;-42
2023/07/31 03:13:17;;;;;;;11.55;5.47;;;17.50;99.90;;;;;;5058725;28;20098;-42
2023/07/31 03:15:43;;;;;;;9.48;5.28;;;17.50;99.90;;;;;;5043787;28;20035;-42
2023/07/31 03:18:09;;;;;;;10.63;4.97;;;17.50;99.90;;;;;;5054740;28;20569;-42
2023/07/31 03:20:34;;;;;;;10.90;5.00;;;17.50;99.90;;;;;;5058926;28;20036;-42
2023/07/31 03:23:00;;;;;;;11.88;5.15;;;17.50;99.90;;;;;;5059202;28;20047;-42
2023/07/31 03:25:25;;;;;;;13.13;5.25;;;17.50;99.90;;;;;;5048794;28;20120;-42
2023/07/31 03:27:54;;;;;;;11.20;5.53;;;17.50;99.90;;;;;;5049314;28;20032;-42
2023/07/31 03:30:19;;;;;;;11.80;5.60;;;17.50;99.90;;;;;;5053893;28;20045;-42
2023/07/31 03:32:45;;;;;;;10.75;5.00;;;17.50;99.90;;;;;;5050953;28;20087;-42
2023/07/31 03:35:10;;;;;;;10.35;5.05;;;17.50;99.90;;;;;;5066749;28;20028;-42
2023/07/31 03:37:36;;;;;;;11.95;5.85;;;17.50;99.90;;;;;;5066074;28;20027;-42
2023/07/31 03:40:02;;;;;;;11.70;5.57;;;17.50;99.90;;;;;;5056536;28;20533;-42
2023/07/31 03:42:30;;;;;;;11.20;5.20;;;17.50;99.90;;;;;;5065308;28;20040;-42
2023/07/31 03:44:56;;;;;;;15.38;5.45;;;17.50;99.90;;;;;;5062841;28;20137;-43
2023/07/31 03:47:21;;;;;;;9.68;5.10;;;17.50;99.90;;;;;;5067328;28;20483;-42
2023/07/31 03:49:47;;;;;;;9.98;5.15;;;17.50;99.90;;;;;;5058952;28;20020;-42
2023/07/31 03:52:13;;;;;;;8.25;4.53;;;17.50;99.90;;;;;;5047530;28;20021;-42
2023/07/31 03:54:38;;;;;;;8.48;4.60;;;17.50;99.90;;;;;;5059889;28;20032;-42
2023/07/31 03:57:04;;;;;;;10.65;4.68;;;17.50;99.90;;;;;;5052837;28;20046;-42
2023/07/31 03:59:30;;;;;;;10.55;5.45;;;17.50;99.90;;;;;;5062321;28;20036;-41
2023/07/31 04:01:55;;;;;;;9.57;5.28;;;17.50;99.90;;;;;;5048751;28;20507;-42
2023/07/31 04:04:21;;;;;;;10.60;4.43;;;17.50;99.90;;;;;;5053916;28;20032;-42
2023/07/31 04:06:46;;;;;;;9.20;5.13;;;17.60;99.90;;;;;;5051239;28;20032;-41
2023/07/31 04:09:15;;;;;;;11.88;5.15;;;17.60;99.90;;;;;;5049762;28;20052;-42
2023/07/31 04:11:40;;;;;;;10.60;5.15;;;17.50;99.90;;;;;;5059613;28;20021;-42
2023/07/31 04:14:06;;;;;;;8.52;4.70;;;17.50;99.90;;;;;;5063640;28;20025;-41
2023/07/31 04:16:31;;;;;;;9.40;4.90;;;17.50;99.90;;;;;;5057378;28;20028;-42
2023/07/31 04:18:57;;;;;;;10.82;5.40;;;17.50;99.90;;;;;;5064667;28;20012;-43
2023/07/31 04:21:22;;;;;;;11.77;4.72;;;17.50;99.90;;;;;;5055622;28;20040;-42
2023/07/31 04:23:48;;;;;;;10.65;4.95;;;17.50;99.90;;;;;;5065891;28;20197;-42
2023/07/31 04:26:19;;;;;;;10.77;5.40;;;17.50;99.90;;;;;;5057359;28;20353;-43
2023/07/31 04:28:44;;;;;;;9.48;4.60;;;17.50;99.90;;;;;;5046579;28;20029;-42
2023/07/31 04:31:10;;;;;;;7.88;4.47;;;17.50;99.90;;;;;;5057589;28;20094;-43
2023/07/31 04:33:35;;;;;;;11.32;5.10;;;17.60;99.90;;;;;;5046109;28;20025;-43
2023/07/31 04:36:01;;;;;;;10.25;5.35;;;17.50;99.90;;;;;;5051207;28;20578;-43
2023/07/31 04:38:27;;;;;;;8.68;4.85;;;17.60;99.90;;;;;;5066051;28;20073;-43
2023/07/31 04:40:52;;;;;;;7.68;4.57;;;17.60;99.90;;;;;;5050120;28;20036;-43
2023/07/31 04:43:18;;;;;;;8.50;4.35;;;17.60;99.90;;;;;;5045602;28;20032;-43
2023/07/31 04:45:47;;;;;;;11.63;4.95;;;17.50;99.90;;;;;;5053798;28;20024;-42
2023/07/31 04:48:15;;;;;;;12.65;5.15;;;17.60;99.90;;;;;;5050082;28;20127;-43
2023/07/31 04:50:44;;;;;;;9.75;5.05;;;17.60;99.90;;;;;;5052467;28;20032;-43
2023/07/31 04:53:09;;;;;;;7.43;4.47;;;17.60;99.90;;;;;;5064073;28;20383;-43
2023/07/31 04:55:35;;;;;;;8.38;4.47;;;17.60;99.90;;;;;;5061789;28;20582;-43
2023/07/31 04:58:00;;;;;;;9.27;4.57;;;17.60;99.90;;;;;;5057363;28;20024;-43
2023/07/31 05:00:26;;;;;;;7.90;4.30;;;17.60;99.90;;;;;;5064116;28;20032;-42
2023/07/31 05:02:51;;;;;;;9.25;4.35;;;17.60;99.90;;;;;;5061686;28;20029;-43
2023/07/31 05:05:17;;;;;;;9.82;4.88;;;17.60;99.90;;;;;;5065190;28;20017;-43
2023/07/31 05:07:43;;;;;;;9.27;4.70;;;17.60;99.90;;;;;;5056526;28;20079;-43
2023/07/31 05:10:11;;;;;;;9.57;4.80;;;17.60;99.90;;;;;;5057488;28;20127;-42
2023/07/31 05:12:37;;;;;;;10.98;4.97;;;17.60;99.90;;;;;;5053877;28;20048;-42
2023/07/31 05:15:03;;;;;;;9.23;5.10;;;17.60;99.90;;;;;;5065299;28;20041;-42
2023/07/31 05:17:29;;;;;;;8.27;4.28;;;17.60;99.90;;;;;;5060165;28;20032;-43
2023/07/31 05:19:54;;;;;;;7.55;4.35;;;17.60;99.90;;;;;;5045660;28;20365;-43
2023/07/31 05:22:20;;;;;;;7.40;4.68;;;17.60;99.90;;;;;;5049675;28;20131;-43
2023/07/31 05:24:45;;;;;;;9.25;5.25;;;17.60;99.90;;;;;;5064259;28;20071;-41
2023/07/31 05:27:12;;;;;;;9.93;4.38;;;17.60;99.90;;;;;;5061103;28;20034;-42
2023/07/31 05:29:40;;;;;;;11.18;5.22;;;17.50;99.90;;;;;;5048824;28;20573;-41
2023/07/31 05:32:06;;;;;;;7.75;3.92;;;17.50;99.90;;;;;;5055924;28;20029;-42
2023/07/31 05:34:32;;;;;;;9.73;4.80;;;17.50;99.90;;;;;;5055577;28;20021;-42
2023/07/31 05:36:57;;;;;;;10.82;5.57;;;17.50;99.90;;;;;;5061236;28;20032;-42
2023/07/31 05:39:23;;;;;;;11.93;4.72;;;17.40;99.90;;;;;;5054073;28;20098;-42
2023/07/31 05:41:48;;;;;;;10.02;4.85;;;17.40;99.90;;;;;;5046088;28;20139;-41
2023/07/31 05:44:14;;;;;;;9.45;4.55;;;17.40;99.90;;;;;;5053391;28;20360;-43
2023/07/31 05:46:39;;;;;;;7.22;4.10;;;17.30;99.90;;;;;;5064009;28;20035;-42
2023/07/31 05:49:05;;;;;;;6.20;3.90;;;17.30;99.90;;;;;;5053680;28;20387;-42
2023/07/31 05:51:31;;;;;;;6.25;3.50;;;17.30;99.90;;;;;;5064409;28;20112;-41
2023/07/31 05:53:56;;;;;;;6.43;3.40;;;17.30;99.90;;;;;;5060222;28;20017;-41
2023/07/31 05:56:22;;;;;;;6.68;4.22;;;17.20;99.90;;;;;;5044185;28;20094;-41
2023/07/31 05:58:48;;;;;;;6.38;3.65;;;17.20;99.90;;;;;;5049403;28;20044;-42
2023/07/31 06:01:15;;;;;;;5.25;3.22;;;17.20;99.90;;;;;;5064496;28;20041;-41
2023/07/31 06:03:47;;;;;;;9.20;4.30;;;17.20;99.90;;;;;;5059859;28;20107;-42
2023/07/31 06:06:13;;;;;;;7.22;3.60;;;17.20;99.90;;;;;;5045203;28;20381;-42
2023/07/31 06:08:39;;;;;;;5.97;3.55;;;17.20;99.90;;;;;;5053708;28;20049;-42
2023/07/31 06:11:08;;;;;;;6.95;3.95;;;17.20;99.90;;;;;;5050671;28;20056;-42
2023/07/31 06:13:34;;;;;;;7.10;3.92;;;17.20;99.90;;;;;;5060479;28;20072;-42
2023/07/31 06:15:59;;;;;;;6.03;3.40;;;17.20;99.90;;;;;;5049754;28;20622;-42
2023/07/31 06:18:25;;;;;;;6.38;3.80;;;17.20;99.90;;;;;;5049154;28;20020;-42
2023/07/31 06:20:53;;;;;;;6.57;3.40;;;17.20;99.90;;;;;;5052524;28;20025;-41
2023/07/31 06:23:22;;;;;;;4.43;3.17;;;17.30;99.90;;;;;;5046891;28;20024;-41
2023/07/31 06:25:47;;;;;;;8.23;3.63;;;17.30;99.90;;;;;;5054232;28;20074;-41
2023/07/31 06:28:13;;;;;;;7.82;3.40;;;17.30;99.90;;;;;;5046010;28;20103;-41
2023/07/31 06:30:38;;;;;;;6.60;4.00;;;17.40;99.90;;;;;;5054905;28;20370;-42
2023/07/31 06:33:04;;;;;;;6.03;3.38;;;17.40;99.90;;;;;;5045500;28;20374;-41
2023/07/31 06:35:29;;;;;;;5.40;2.88;;;17.40;99.90;;;;;;5056154;28;20025;-42
2023/07/31 06:37:55;;;;;;;5.45;3.28;;;17.40;99.90;;;;;;5047273;28;20028;-41
2023/07/31 06:40:22;;;;;;;6.20;3.53;;;17.50;99.90;;;;;;5048287;28;20521;-41
2023/07/31 06:42:51;;;;;;;5.78;3.30;;;17.50;99.90;;;;;;5045423;28;20032;-42
2023/07/31 06:45:16;;;;;;;4.97;3.30;;;17.50;99.90;;;;;;5055888;28;20024;-41
2023/07/31 06:47:42;;;;;;;6.72;3.22;;;17.50;99.90;;;;;;5044726;28;20492;-41
2023/07/31 06:50:08;;;;;;;5.70;3.10;;;17.50;99.90;;;;;;5057930;28;20078;-41
2023/07/31 06:52:34;;;;;;;4.63;3.20;;;17.60;99.90;;;;;;5045498;28;20559;-41
2023/07/31 06:55:15;;;;;;;5.32;2.70;;;17.60;99.90;;;;;;5051979;28;20031;-41
2023/07/31 06:57:41;;;;;;;3.22;2.50;;;17.60;99.90;;;;;;5047244;28;20473;-41
2023/07/31 07:00:07;;;;;;;3.15;2.47;;;17.60;99.90;;;;;;5051292;28;20028;-41
2023/07/31 07:02:33;;;;;;;6.28;2.83;;;17.60;99.90;;;;;;5051659;28;20271;-42
2023/07/31 07:04:58;;;;;;;3.30;2.20;;;17.60;99.90;;;;;;5051832;28;20487;-42
2023/07/31 07:07:26;;;;;;;4.03;2.40;;;17.60;99.90;;;;;;5047442;28;20029;-42
2023/07/31 07:09:52;;;;;;;3.03;2.00;;;17.60;99.90;;;;;;5053500;28;20769;-42
2023/07/31 07:12:18;;;;;;;3.75;2.10;;;17.60;99.90;;;;;;5058421;28;20559;-42
2023/07/31 07:14:47;;;;;;;2.75;1.98;;;17.70;99.90;;;;;;5065633;28;20476;-41
2023/07/31 07:17:13;;;;;;;2.38;1.70;;;17.70;99.90;;;;;;5057173;28;20036;-42
2023/07/31 07:19:42;;;;;;;1.95;1.70;;;17.70;99.90;;;;;;5066346;28;20029;-41
2023/07/31 07:22:10;;;;;;;2.33;1.60;;;17.70;99.90;;;;;;5060947;28;20522;-41
2023/07/31 07:24:36;;;;;;;1.70;1.60;;;17.70;99.90;;;;;;5058691;28;20469;-42
2023/07/31 07:27:01;;;;;;;3.17;1.60;;;17.80;99.90;;;;;;5059884;28;20029;-41
2023/07/31 07:29:29;;;;;;;1.63;1.30;;;17.80;99.90;;;;;;5049857;28;20021;-42
2023/07/31 07:31:55;;;;;;;1.52;1.27;;;17.80;99.90;;;;;;5061486;28;20036;-42
2023/07/31 07:34:24;;;;;;;2.15;1.40;;;17.80;99.90;;;;;;5046845;28;20040;-43
2023/07/31 07:36:59;;;;;;;1.38;1.27;;;17.80;99.90;;;;;;5058850;28;20036;-42
2023/07/31 07:39:24;;;;;;;1.60;1.40;;;17.80;99.90;;;;;;5048654;28;20025;-43
2023/07/31 07:41:50;;;;;;;1.30;1.13;;;17.80;99.90;;;;;;5054457;28;20435;-43
2023/07/31 07:44:15;;;;;;;1.23;1.00;;;17.80;99.90;;;;;;5065829;28;20903;-43
2023/07/31 07:46:41;;;;;;;1.60;1.27;;;17.80;99.90;;;;;;5063339;28;20107;-43
2023/07/31 07:49:07;;;;;;;0.90;0.90;;;17.90;99.90;;;;;;5051872;28;20025;-43
2023/07/31 07:51:32;;;;;;;1.50;1.40;;;17.80;99.90;;;;;;5052262;28;20456;-42
2023/07/31 07:53:58;;;;;;;1.65;1.02;;;17.90;99.90;;;;;;5055714;28;20075;-43
2023/07/31 07:56:26;;;;;;;1.10;0.98;;;17.90;99.90;;;;;;5049147;28;20554;-42
2023/07/31 07:58:52;;;;;;;0.95;0.88;;;17.90;99.90;;;;;;5056978;28;20040;-42
2023/07/31 08:01:18;;;;;;;0.88;0.88;;;17.90;99.90;;;;;;5048314;28;20021;-42
2023/07/31 08:03:43;;;;;;;1.20;1.10;;;17.90;99.90;;;;;;5057537;28;20017;-42
2023/07/31 08:06:12;;;;;;;0.77;0.70;;;17.90;99.90;;;;;;5048249;28;20029;-42
2023/07/31 08:08:38;;;;;;;0.80;0.80;;;17.90;99.90;;;;;;5058430;28;20048;-43
2023/07/31 08:11:03;;;;;;;0.80;0.80;;;18.00;99.90;;;;;;5047803;28;20067;-43
2023/07/31 08:13:29;;;;;;;2.92;1.20;;;18.00;99.90;;;;;;5059544;28;20043;-42
2023/07/31 08:15:55;;;;;;;1.30;1.20;;;18.00;99.90;;;;;;5046942;28;20151;-43
2023/07/31 08:18:21;;;;;;;0.90;0.90;;;18.00;99.90;;;;;;5058440;28;20112;-43
2023/07/31 08:20:47;;;;;;;0.88;0.88;;;18.00;99.90;;;;;;5067167;28;20119;-43
2023/07/31 08:23:12;;;;;;;1.00;1.00;;;18.00;99.90;;;;;;5061589;28;20028;-42
2023/07/31 08:25:41;;;;;;;1.00;0.88;;;18.00;99.90;;;;;;5055102;28;20028;-42
2023/07/31 08:28:07;;;;;;;1.13;1.10;;;18.10;99.90;;;;;;5062401;28;20024;-42
2023/07/31 08:30:33;;;;;;;1.60;1.23;;;18.10;99.90;;;;;;5050830;28;20438;-42
2023/07/31 08:32:59;;;;;;;1.25;1.10;;;18.20;99.90;;;;;;5047243;28;20067;-42
2023/07/31 08:35:26;;;;;;;1.38;1.27;;;18.20;99.90;;;;;;5059717;28;20024;-42
2023/07/31 08:37:57;;;;;;;1.70;1.40;;;18.20;99.90;;;;;;5063563;28;20027;-42
2023/07/31 08:40:23;;;;;;;1.77;1.38;;;18.30;99.90;;;;;;5061117;28;20028;-43
2023/07/31 08:42:51;;;;;;;1.05;1.02;;;18.20;99.90;;;;;;5062409;28;20017;-42
2023/07/31 08:45:18;;;;;;;1.33;1.20;;;18.20;99.90;;;;;;5054806;28;20098;-43
2023/07/31 08:47:49;;;;;;;1.63;1.52;;;18.30;99.90;;;;;;5064158;28;20016;-43
2023/07/31 08:50:19;;;;;;;1.52;1.42;;;18.30;99.90;;;;;;5055093;28;20036;-42
2023/07/31 08:52:46;;;;;;;1.40;1.30;;;18.30;99.90;;;;;;5063806;28;20044;-42
2023/07/31 08:55:12;;;;;;;2.13;1.92;;;18.30;99.90;;;;;;5054442;28;20126;-42
2023/07/31 08:57:39;;;;;;;1.70;1.60;;;18.40;99.90;;;;;;5066406;28;20095;-43
2023/07/31 09:00:06;;;;;;;1.58;1.45;;;18.40;99.90;;;;;;5052167;28;20116;-42
2023/07/31 09:02:44;;;;;;;1.58;1.48;;;18.40;99.90;;;;;;5066006;28;20114;-43
2023/07/31 09:05:10;;;;;;;1.65;1.55;;;18.40;99.90;;;;;;5052897;28;20052;-42
2023/07/31 09:07:37;;;;;;;1.80;1.70;;;18.40;99.90;;;;;;5064681;28;20083;-42
2023/07/31 09:10:04;;;;;;;2.05;1.88;;;18.40;99.90;;;;;;5051595;28;20043;-41
2023/07/31 09:12:31;;;;;;;1.95;1.63;;;18.40;99.90;;;;;;5045099;28;20040;-42
2023/07/31 09:14:57;;;;;;;1.88;1.70;;;18.40;99.90;;;;;;5050291;28;20518;-43
2023/07/31 09:17:33;;;;;;;2.22;1.48;;;18.30;99.90;;;;;;5063588;28;20471;-42
2023/07/31 09:20:19;;;;;;;2.00;1.77;;;18.30;99.90;;;;;;5055564;28;20017;-42
2023/07/31 09:22:48;;;;;;;1.98;1.88;;;18.30;99.90;;;;;;5065048;28;20028;-42
2023/07/31 09:25:24;;;;;;;2.17;1.98;;;18.30;99.90;;;;;;5055712;28;20472;-42
2023/07/31 09:28:12;;;;;;;2.83;2.20;;;18.30;99.90;;;;;;5047276;28;20053;-42
2023/07/31 09:30:51;;;;;;;2.10;2.00;;;18.40;99.90;;;;;;5056791;28;20147;-41
2023/07/31 09:33:18;;;;;;;2.70;2.50;;;18.40;99.90;;;;;;5045291;28;20029;-42
2023/07/31 09:35:44;;;;;;;2.80;2.50;;;18.40;99.90;;;;;;5052214;28;20057;-42
2023/07/31 09:38:14;;;;;;;2.70;2.50;;;18.40;99.90;;;;;;5063760;28;20063;-42
2023/07/31 09:40:42;;;;;;;3.28;2.78;;;18.40;99.90;;;;;;5056320;28;20025;-42
2023/07/31 09:43:13;;;;;;;3.60;3.30;;;18.40;99.90;;;;;;5063292;28;20033;-42
2023/07/31 09:45:40;;;;;;;3.20;2.80;;;18.40;99.90;;;;;;5056081;28;20460;-42
2023/07/31 09:48:10;;;;;;;3.50;3.10;;;18.40;99.90;;;;;;5058332;28;20025;-42
2023/07/31 09:50:40;;;;;;;3.42;3.10;;;18.40;99.90;;;;;;5058834;28;20025;-42
2023/07/31 09:53:08;;;;;;;4.07;3.50;;;18.50;99.90;;;;;;5057046;28;20033;-42
2023/07/31 09:55:34;;;;;;;4.57;3.33;;;18.50;99.90;;;;;;5058538;28;20028;-43
2023/07/31 09:58:02;;;;;;;4.30;3.90;;;18.50;99.90;;;;;;5055124;28;20190;-43
2023/07/31 10:00:29;;;;;;;3.47;3.20;;;18.50;99.90;;;;;;5052610;28;20075;-42
2023/07/31 10:02:59;;;;;;;4.35;3.58;;;18.50;99.90;;;;;;5055495;28;20029;-42
2023/07/31 10:05:32;;;;;;;4.25;3.85;;;18.60;99.90;;;;;;5050867;28;20028;-42
2023/07/31 10:07:58;;;;;;;4.78;4.10;;;18.60;99.90;;;;;;5056429;28;20120;-43
2023/07/31 10:10:24;;;;;;;4.65;4.20;;;18.70;99.90;;;;;;5052041;28;20499;-43
2023/07/31 10:12:55;;;;;;;6.45;4.25;;;18.70;99.90;;;;;;5058717;28;20115;-44
2023/07/31 10:15:24;;;;;;;4.28;3.40;;;18.70;99.90;;;;;;5055661;28;20045;-42
2023/07/31 10:17:54;;;;;;;4.97;3.83;;;18.70;99.90;;;;;;5058137;28;20112;-42
2023/07/31 10:20:21;;;;;;;4.45;4.05;;;18.70;99.90;;;;;;5052982;28;20036;-43
2023/07/31 10:22:47;;;;;;;5.85;4.10;;;18.70;99.90;;;;;;5054468;28;20136;-44
2023/07/31 10:25:16;;;;;;;4.13;3.60;;;18.80;99.90;;;;;;5063439;28;20086;-42
2023/07/31 10:27:41;;;;;;;4.35;3.85;;;18.80;99.90;;;;;;5059934;28;20028;-42
2023/07/31 10:30:12;;;;;;;4.35;3.85;;;18.90;99.90;;;;;;5050345;28;20041;-42
2023/07/31 10:32:40;;;;;;;5.68;4.03;;;18.90;99.90;;;;;;5049723;28;20031;-44
2023/07/31 10:35:07;;;;;;;4.13;3.65;;;18.90;99.90;;;;;;5060959;28;20032;-42
2023/07/31 10:37:42;;;;;;;5.82;3.70;;;19.00;99.90;;;;;;5053688;28;20139;-42
2023/07/31 10:40:08;;;;;;;5.10;4.40;;;19.00;99.90;;;;;;5068483;28;20028;-41
2023/07/31 10:42:39;;;;;;;4.97;3.97;;;19.10;99.90;;;;;;5062313;28;20039;-42
2023/07/31 10:45:07;;;;;;;4.30;3.90;;;19.10;99.90;;;;;;5065901;28;20055;-42
2023/07/31 10:48:02;;;;;;;5.47;4.10;;;19.10;99.90;;;;;;5061268;28;20027;-42
2023/07/31 10:50:32;;;;;;;5.05;4.18;;;19.10;99.90;;;;;;5054386;28;20688;-42
2023/07/31 10:52:58;;;;;;;5.38;4.38;;;19.10;99.90;;;;;;5054481;28;20036;-42
2023/07/31 10:55:27;;;;;;;4.63;4.18;;;19.20;99.90;;;;;;5050332;28;20044;-42
2023/07/31 10:57:54;;;;;;;4.47;4.00;;;19.20;99.90;;;;;;5059155;28;20098;-42
2023/07/31 11:00:29;;;;;;;3.78;3.47;;;19.30;99.90;;;;;;5065514;28;20490;-41
2023/07/31 11:02:58;;;;;;;5.07;4.30;;;19.30;99.90;;;;;;5063542;28;20040;-42
2023/07/31 11:05:45;;;;;;;5.20;3.58;;;19.30;99.90;;;;;;5052265;28;20025;-42
2023/07/31 11:08:15;;;;;;;5.45;4.47;;;19.30;99.90;;;;;;5055989;28;20372;-42
2023/07/31 11:10:40;;;;;;;4.72;3.97;;;19.40;99.90;;;;;;5053692;28;20488;-43
2023/07/31 11:13:06;;;;;;;4.00;3.65;;;19.40;99.90;;;;;;5050634;28;20108;-41
2023/07/31 11:15:32;;;;;;;4.13;3.70;;;19.40;99.90;;;;;;5064853;28;20030;-42
2023/07/31 11:18:00;;;;;;;4.95;3.97;;;19.40;99.90;;;;;;5064178;28;20040;-42
2023/07/31 11:20:26;;;;;;;3.83;3.40;;;19.40;99.90;;;;;;5058510;28;20373;-42
2023/07/31 11:22:52;;;;;;;4.20;3.58;;;19.40;99.90;;;;;;5048106;28;20027;-41
2023/07/31 11:25:18;;;;;;;3.83;3.40;;;19.50;99.90;;;;;;5054951;28;20041;-42
2023/07/31 11:27:44;;;;;;;5.30;4.00;;;19.50;99.90;;;;;;5066204;28;20024;-41
2023/07/31 11:30:13;;;;;;;3.45;3.08;;;19.40;99.90;;;;;;5054808;28;20044;-42
2023/07/31 11:32:39;;;;;;;3.63;3.13;;;19.40;99.90;;;;;;5067762;28;20020;-43
2023/07/31 11:35:08;;;;;;;4.68;3.35;;;19.30;99.90;;;;;;5054091;28;20605;-42
2023/07/31 11:37:44;;;;;;;3.97;3.20;;;19.30;99.90;;;;;;5067879;28;20021;-42
2023/07/31 11:40:13;;;;;;;3.80;3.40;;;19.40;99.90;;;;;;5054077;28;20120;-42
2023/07/31 11:42:39;;;;;;;6.05;3.65;;;19.30;99.90;;;;;;5067813;28;20357;-43
2023/07/31 11:45:11;;;;;;;4.22;3.20;;;19.40;99.90;;;;;;5056238;28;20490;-42
2023/07/31 11:47:37;;;;;;;4.18;3.15;;;19.40;99.90;;;;;;5066352;28;20028;-42
2023/07/31 11:50:06;;;;;;;3.40;3.10;;;19.40;99.90;;;;;;5052685;28;20159;-42
2023/07/31 11:52:43;;;;;;;4.25;2.92;;;19.40;99.90;;;;;;5064642;28;20034;-42
2023/07/31 11:55:10;;;;;;;3.55;3.00;;;19.50;99.90;;;;;;5057176;28;20048;-43
2023/07/31 11:57:40;;;;;;;3.92;3.03;;;19.50;99.90;;;;;;5063186;28;20738;-42
2023/07/31 12:00:08;;;;;;;4.45;3.05;;;19.50;99.90;;;;;;5059559;28;20028;-43
2023/07/31 12:02:34;;;;;;;3.47;2.90;;;19.50;99.90;;;;;;5061698;28;20028;-42
2023/07/31 12:05:03;;;;;;;4.90;2.78;;;19.50;99.90;;;;;;5060708;28;20304;-42
2023/07/31 12:07:43;;;;;;;4.15;3.00;;;19.60;99.90;;;;;;5060234;28;20086;-41
2023/07/31 12:10:09;;;;;;;3.47;3.00;;;19.60;99.90;;;;;;5058827;28;20037;-42
2023/07/31 12:12:37;;;;;;;3.00;2.80;;;19.70;99.90;;;;;;5063003;28;20020;-42
2023/07/31 12:15:15;;;;;;;3.72;2.90;;;19.70;99.90;;;;;;5063881;28;20038;-42
2023/07/31 12:17:40;;;;;;;3.55;3.25;;;19.70;99.90;;;;;;5058556;28;20464;-42
2023/07/31 12:20:07;;;;;;;4.70;2.88;;;19.70;99.90;;;;;;5064989;28;20032;-46
2023/07/31 12:22:32;;;;;;;3.17;2.90;;;19.70;99.90;;;;;;5055341;28;20020;-42
2023/07/31 12:24:58;;;;;;;3.75;3.45;;;19.70;99.90;;;;;;5066042;28;20020;-42
2023/07/31 12:27:26;;;;;;;3.40;3.00;;;19.70;99.90;;;;;;5055860;28;20035;-41
2023/07/31 12:29:51;;;;;;;3.28;2.97;;;19.70;99.90;;;;;;5065988;28;20119;-42
2023/07/31 12:32:25;;;;;;;4.50;3.10;;;19.70;99.90;;;;;;5054062;28;20488;-42
2023/07/31 12:34:51;;;;;;;3.70;3.10;;;19.70;99.90;;;;;;5067427;28;20048;-41
2023/07/31 12:37:19;;;;;;;3.35;2.97;;;19.60;99.90;;;;;;5054097;28;20029;-42
2023/07/31 12:39:45;;;;;;;4.00;3.22;;;19.60;99.90;;;;;;5066971;28;20028;-41
2023/07/31 12:42:10;;;;;;;3.92;3.35;;;19.60;99.90;;;;;;5053712;28;20025;-41
2023/07/31 12:44:36;;;;;;;3.22;2.92;;;19.50;99.90;;;;;;5066362;28;20036;-41
2023/07/31 12:47:02;;;;;;;3.50;3.20;;;19.50;99.90;;;;;;5056195;28;20067;-41